Orange8 — JL6278 — position and weather

sailwx.info

Track history (hours):
 
Tides and Currents Weather Stations Pressure Air Temp Water Temp Dewpoint Dewpoint Depression Visibility Wind Speed Wind Dir Waves Ship Positions

Orange8

Last reported at 2015-Sep-04 13:33 UTC. Time now 2015-Sep-04 14:34 UTC.
Position N 34°37' E 135°19'.

Length 164 m; draft 5 m.

Type: Passenger vessel. MMSI: 431501603.

Date/timePositionNaut miles runAvg speedWind from/ knotsBaromVisibWave heightAir tempDewpointWater temp
2015-Sep-04 13:33N 34°37' E 135°19'6 5.6
2015-Sep-04 12:29N 34°37' E 135°26'0 0.0
2015-Sep-04 11:29N 34°37' E 135°26'0 0.0
2015-Sep-04 10:11N 34°37' E 135°26'0 0.0
2015-Sep-04 09:29N 34°37' E 135°26'0 0.0
2015-Sep-04 08:29N 34°37' E 135°26'0 0.0
2015-Sep-04 07:23N 34°37' E 135°26'0 0.0
2015-Sep-04 06:29N 34°37' E 135°26'0 0.0
2015-Sep-04 05:17N 34°37' E 135°26'0 0.0
2015-Sep-04 04:29N 34°37' E 135°26'0 0.0
2015-Sep-04 03:29N 34°37' E 135°26'0 0.0
2015-Sep-04 02:29N 34°37' E 135°26'0 0.0
2015-Sep-04 01:29N 34°37' E 135°26'0 0.0
2015-Sep-04 00:29N 34°37' E 135°26'0 0.0
2015-Sep-03 23:29N 34°37' E 135°26'0 0.0
2015-Sep-03 21:10N 34°37' E 135°26'5 8.7
2015-Sep-03 20:33N 34°36' E 135°20'1818.4
2015-Sep-03 19:33N 34°37' E 134°57'1 0.0
2015-Sep-02 14:33N 34°37' E 134°56'1918.5
2015-Sep-02 13:33N 34°37' E 135°19'6 5.5
2015-Sep-02 12:32N 34°37' E 135°26'0 0.0
2015-Sep-02 11:32N 34°37' E 135°26'0 0.0
2015-Sep-02 10:32N 34°37' E 135°26'0 0.0
2015-Sep-02 09:32N 34°37' E 135°26'0 0.0
2015-Sep-02 08:32N 34°37' E 135°26'0 0.0
2015-Sep-02 07:32N 34°37' E 135°26'0 0.0
2015-Sep-02 05:32N 34°37' E 135°26'0 0.0
2015-Sep-02 04:32N 34°37' E 135°26'0 0.0
2015-Sep-02 03:32N 34°37' E 135°26'0 0.0
2015-Sep-02 02:32N 34°37' E 135°26'0 0.0
2015-Sep-02 01:26N 34°37' E 135°26'0 0.0
2015-Sep-02 00:26N 34°37' E 135°26'0 0.0
2015-Sep-01 21:05N 34°37' E 135°26'5 9.3
2015-Sep-01 20:33N 34°36' E 135°20'1817.4
2015-Sep-01 19:32N 34°36' E 134°58'1 0.0
2015-Aug-31 14:33N 34°37' E 134°57'1818.2
2015-Aug-31 13:33N 34°37' E 135°19'6 6.0
2015-Aug-31 12:33N 34°37' E 135°26'0 0.0
2015-Aug-31 11:21N 34°37' E 135°26'0 0.0
2015-Aug-31 10:27N 34°37' E 135°26'0 0.0
2015-Aug-31 09:33N 34°37' E 135°26'0 0.0
2015-Aug-31 08:33N 34°37' E 135°26'0 0.0
2015-Aug-31 07:33N 34°37' E 135°26'0 0.0
2015-Aug-31 06:33N 34°37' E 135°26'9 0.9
2015-Aug-30 20:22N 34°35' E 135°16'0 0.0
2015-Aug-28 20:24N 34°35' E 135°16'9 0.2
2015-Aug-27 03:28N 34°37' E 135°26'0 0.0
2015-Aug-27 02:22N 34°37' E 135°26'0 0.0
2015-Aug-27 01:28N 34°37' E 135°26'0 0.0
2015-Aug-27 00:28N 34°37' E 135°26'0 0.0
2015-Aug-26 23:28N 34°37' E 135°26'0 0.0
2015-Aug-26 22:22N 34°37' E 135°26'0 0.0
2015-Aug-26 21:16N 34°37' E 135°26'5 7.4
2015-Aug-26 20:33N 34°36' E 135°20'1817.9
2015-Aug-26 19:33N 34°37' E 134°58'2 0.1
2015-Aug-25 14:33N 34°38' E 134°59'1616.2
2015-Aug-25 13:33N 34°37' E 135°19'  
Track history (hours):
 
Tides and Currents Weather Stations Pressure Air Temp Water Temp Dewpoint Dewpoint Depression Visibility Wind Speed Wind Dir Waves Ship Positions

Orange8

Last reported at 2015-Sep-04 13:33 UTC. Time now 2015-Sep-04 14:34 UTC.
Position N 34°37' E 135°19'.

Length 164 m; draft 5 m.

Type: Passenger vessel. MMSI: 431501603.

Date/timePositionNaut miles runAvg speedWind from/ knotsBaromVisibWave heightAir tempDewpointWater temp
2015-Sep-04 13:33N 34°37' E 135°19'6 5.6
2015-Sep-04 12:29N 34°37' E 135°26'0 0.0
2015-Sep-04 11:29N 34°37' E 135°26'0 0.0
2015-Sep-04 10:11N 34°37' E 135°26'0 0.0
2015-Sep-04 09:29N 34°37' E 135°26'0 0.0
2015-Sep-04 08:29N 34°37' E 135°26'0 0.0
2015-Sep-04 07:23N 34°37' E 135°26'0 0.0
2015-Sep-04 06:29N 34°37' E 135°26'0 0.0
2015-Sep-04 05:17N 34°37' E 135°26'0 0.0
2015-Sep-04 04:29N 34°37' E 135°26'0 0.0
2015-Sep-04 03:29N 34°37' E 135°26'0 0.0
2015-Sep-04 02:29N 34°37' E 135°26'0 0.0
2015-Sep-04 01:29N 34°37' E 135°26'0 0.0
2015-Sep-04 00:29N 34°37' E 135°26'0 0.0
2015-Sep-03 23:29N 34°37' E 135°26'0 0.0
2015-Sep-03 21:10N 34°37' E 135°26'5 8.7
2015-Sep-03 20:33N 34°36' E 135°20'1818.4
2015-Sep-03 19:33N 34°37' E 134°57'1 0.0
2015-Sep-02 14:33N 34°37' E 134°56'1918.5
2015-Sep-02 13:33N 34°37' E 135°19'6 5.5
2015-Sep-02 12:32N 34°37' E 135°26'0 0.0
2015-Sep-02 11:32N 34°37' E 135°26'0 0.0
2015-Sep-02 10:32N 34°37' E 135°26'0 0.0
2015-Sep-02 09:32N 34°37' E 135°26'0 0.0
2015-Sep-02 08:32N 34°37' E 135°26'0 0.0
2015-Sep-02 07:32N 34°37' E 135°26'0 0.0
2015-Sep-02 05:32N 34°37' E 135°26'0 0.0
2015-Sep-02 04:32N 34°37' E 135°26'0 0.0
2015-Sep-02 03:32N 34°37' E 135°26'0 0.0
2015-Sep-02 02:32N 34°37' E 135°26'0 0.0
2015-Sep-02 01:26N 34°37' E 135°26'0 0.0
2015-Sep-02 00:26N 34°37' E 135°26'0 0.0
2015-Sep-01 21:05N 34°37' E 135°26'5 9.3
2015-Sep-01 20:33N 34°36' E 135°20'1817.4
2015-Sep-01 19:32N 34°36' E 134°58'1 0.0
2015-Aug-31 14:33N 34°37' E 134°57'1818.2
2015-Aug-31 13:33N 34°37' E 135°19'6 6.0
2015-Aug-31 12:33N 34°37' E 135°26'0 0.0
2015-Aug-31 11:21N 34°37' E 135°26'0 0.0
2015-Aug-31 10:27N 34°37' E 135°26'0 0.0
2015-Aug-31 09:33N 34°37' E 135°26'0 0.0
2015-Aug-31 08:33N 34°37' E 135°26'0 0.0
2015-Aug-31 07:33N 34°37' E 135°26'0 0.0
2015-Aug-31 06:33N 34°37' E 135°26'9 0.9
2015-Aug-30 20:22N 34°35' E 135°16'0 0.0
2015-Aug-28 20:24N 34°35' E 135°16'9 0.2
2015-Aug-27 03:28N 34°37' E 135°26'0 0.0
2015-Aug-27 02:22N 34°37' E 135°26'0 0.0
2015-Aug-27 01:28N 34°37' E 135°26'0 0.0
2015-Aug-27 00:28N 34°37' E 135°26'0 0.0
2015-Aug-26 23:28N 34°37' E 135°26'0 0.0
2015-Aug-26 22:22N 34°37' E 135°26'0 0.0
2015-Aug-26 21:16N 34°37' E 135°26'5 7.4
2015-Aug-26 20:33N 34°36' E 135°20'1817.9
2015-Aug-26 19:33N 34°37' E 134°58'2 0.1
2015-Aug-25 14:33N 34°38' E 134°59'1616.2
2015-Aug-25 13:33N 34°37' E 135°19'  

Dump ship's entire track history